createdAt,value
2023-03-12T00:00:46.411Z,0.00
2023-03-12T00:01:46.398Z,0.00
2023-03-12T00:02:46.455Z,0.00
2023-03-12T00:03:46.382Z,0.00
2023-03-12T00:04:46.381Z,0.00
2023-03-12T00:05:46.399Z,0.00
2023-03-12T00:06:46.366Z,0.00
2023-03-12T00:07:46.360Z,0.00
2023-03-12T00:08:46.390Z,0.00
2023-03-12T00:09:46.350Z,0.00
2023-03-12T00:10:46.341Z,0.00
2023-03-12T00:11:46.346Z,0.00
2023-03-12T00:12:46.332Z,0.00
2023-03-12T00:13:46.328Z,0.00
2023-03-12T00:14:46.316Z,0.00
2023-03-12T00:15:46.325Z,0.00
2023-03-12T00:16:46.311Z,0.00
2023-03-12T00:17:46.299Z,0.00
2023-03-12T00:18:46.305Z,0.00
2023-03-12T00:19:46.288Z,0.00
2023-03-12T00:20:46.276Z,0.00
2023-03-12T00:21:46.303Z,0.00
2023-03-12T00:22:46.268Z,0.00
2023-03-12T00:23:46.264Z,0.00
2023-03-12T00:24:46.255Z,0.00
2023-03-12T00:25:46.940Z,0.00
2023-03-12T00:26:46.248Z,0.00
2023-03-12T00:27:46.237Z,0.00
2023-03-12T00:28:46.227Z,0.00
2023-03-12T00:29:46.240Z,0.00
2023-03-12T00:30:46.223Z,0.00
2023-03-12T00:31:46.331Z,0.00
2023-03-12T00:32:46.261Z,0.00
2023-03-12T00:33:46.214Z,0.00
2023-03-12T00:34:46.192Z,0.00
2023-03-12T00:35:46.255Z,0.00
2023-03-12T00:36:46.213Z,0.00
2023-03-12T00:37:46.200Z,0.00
2023-03-12T00:38:46.179Z,0.00
2023-03-12T00:39:46.172Z,0.00
2023-03-12T00:40:46.160Z,0.00
2023-03-12T00:41:46.147Z,0.00
2023-03-12T00:42:46.137Z,0.00
2023-03-12T00:43:46.133Z,0.00
2023-03-12T00:44:46.126Z,0.00
2023-03-12T00:45:46.128Z,0.00
2023-03-12T00:46:46.200Z,0.00
2023-03-12T00:47:46.158Z,0.00
2023-03-12T00:48:46.101Z,0.00
2023-03-12T00:49:46.100Z,0.00
2023-03-12T00:50:46.088Z,0.00
2023-03-12T00:51:46.093Z,0.00
2023-03-12T00:52:46.077Z,0.00
2023-03-12T00:53:46.112Z,0.00
2023-03-12T00:54:46.072Z,0.00
2023-03-12T00:55:46.066Z,0.00
2023-03-12T00:56:46.052Z,0.00
2023-03-12T00:57:46.046Z,0.00
2023-03-12T00:58:46.041Z,0.00
2023-03-12T00:59:46.038Z,0.00
2023-03-12T01:00:46.112Z,0.00
2023-03-12T01:01:46.021Z,0.00
2023-03-12T01:02:46.021Z,0.00
2023-03-12T01:03:46.116Z,0.00
2023-03-12T01:04:46.005Z,0.00
2023-03-12T01:05:46.000Z,0.00
2023-03-12T01:06:45.995Z,0.00
2023-03-12T01:07:45.985Z,0.00
2023-03-12T01:08:45.991Z,0.00
2023-03-12T01:09:45.998Z,0.00
2023-03-12T01:10:45.969Z,0.00
2023-03-12T01:11:45.969Z,0.00
2023-03-12T01:12:45.959Z,0.00
2023-03-12T01:13:45.955Z,0.00
2023-03-12T01:14:45.937Z,0.00
2023-03-12T01:15:45.950Z,0.00
2023-03-12T01:16:46.026Z,0.00
2023-03-12T01:17:45.941Z,0.00
2023-03-12T01:18:45.923Z,0.00
2023-03-12T01:19:45.914Z,0.00
2023-03-12T01:20:45.909Z,0.00
2023-03-12T01:21:45.916Z,0.00
2023-03-12T01:22:45.900Z,0.00
2023-03-12T01:23:45.893Z,0.00
2023-03-12T01:24:45.890Z,0.00
2023-03-12T01:25:45.903Z,0.00
2023-03-12T01:26:45.870Z,0.00
2023-03-12T01:27:45.877Z,0.00
2023-03-12T01:28:45.858Z,0.00
2023-03-12T01:29:45.857Z,0.00
2023-03-12T01:30:45.851Z,0.00
2023-03-12T01:31:45.862Z,0.00
2023-03-12T01:32:45.866Z,0.00
2023-03-12T01:33:45.841Z,0.00
2023-03-12T01:34:45.825Z,0.00
2023-03-12T01:35:45.974Z,0.00
2023-03-12T01:36:45.812Z,0.00
2023-03-12T01:37:45.811Z,0.00
2023-03-12T01:38:45.798Z,0.00
2023-03-12T01:39:45.797Z,0.00
2023-03-12T01:40:45.788Z,0.00
2023-03-12T01:41:45.813Z,0.00
2023-03-12T01:42:45.771Z,0.00
2023-03-12T01:43:45.771Z,0.00
2023-03-12T01:44:45.760Z,0.00
2023-03-12T01:45:45.773Z,0.00
2023-03-12T01:46:45.742Z,0.00
2023-03-12T01:47:45.745Z,0.00
2023-03-12T01:48:45.742Z,0.00
2023-03-12T01:49:45.737Z,0.00
2023-03-12T01:50:45.729Z,0.00
2023-03-12T01:51:45.728Z,0.00
2023-03-12T01:52:45.708Z,0.00
2023-03-12T01:53:45.709Z,0.00
2023-03-12T01:54:45.699Z,0.00
2023-03-12T01:55:45.692Z,0.00
2023-03-12T01:56:45.687Z,0.00
2023-03-12T01:57:45.706Z,0.00
2023-03-12T01:58:45.679Z,0.00
2023-03-12T01:59:45.677Z,0.00
2023-03-12T02:00:45.719Z,0.00
2023-03-12T02:01:45.666Z,0.00
2023-03-12T02:02:45.652Z,0.00
2023-03-12T02:03:45.796Z,0.00
2023-03-12T02:04:45.642Z,0.00
2023-03-12T02:05:45.639Z,0.00
2023-03-12T02:06:45.630Z,0.00
2023-03-12T02:07:45.624Z,0.00
2023-03-12T02:08:45.636Z,0.00
2023-03-12T02:09:45.612Z,0.00
2023-03-12T02:10:45.610Z,0.00
2023-03-12T02:11:45.607Z,0.00
2023-03-12T02:12:45.596Z,0.00
2023-03-12T02:13:45.623Z,0.00
2023-03-12T02:14:45.611Z,0.00
2023-03-12T02:15:45.578Z,0.00
2023-03-12T02:16:45.645Z,0.00
2023-03-12T02:17:45.575Z,0.00
2023-03-12T02:18:45.563Z,0.00
2023-03-12T02:19:45.559Z,0.00
2023-03-12T02:20:45.553Z,0.00
2023-03-12T02:21:45.549Z,0.00
2023-03-12T02:22:45.534Z,0.00
2023-03-12T02:23:45.694Z,0.00
2023-03-12T02:24:45.535Z,0.00
2023-03-12T02:25:45.525Z,0.00
2023-03-12T02:26:45.519Z,0.00
2023-03-12T02:27:45.517Z,0.00
2023-03-12T02:28:45.505Z,0.00
2023-03-12T02:29:45.527Z,0.00
2023-03-12T02:30:45.491Z,0.00
2023-03-12T02:31:45.553Z,0.00
2023-03-12T02:32:45.616Z,0.00
2023-03-12T02:33:45.482Z,0.00
2023-03-12T02:34:45.479Z,0.00
2023-03-12T02:35:45.489Z,0.00
2023-03-12T02:36:45.460Z,0.00
2023-03-12T02:37:45.455Z,0.00
2023-03-12T02:38:45.444Z,0.00
2023-03-12T02:39:45.444Z,0.00
2023-03-12T02:40:45.431Z,0.00
2023-03-12T02:41:45.434Z,0.00
2023-03-12T02:42:45.425Z,0.00
2023-03-12T02:43:45.427Z,0.00
2023-03-12T02:44:45.411Z,0.00
2023-03-12T02:45:45.464Z,0.00
2023-03-12T02:46:45.402Z,0.00
2023-03-12T02:47:45.402Z,0.00
2023-03-12T02:48:45.391Z,0.00
2023-03-12T02:49:45.387Z,0.00
2023-03-12T02:50:45.383Z,0.00
2023-03-12T02:51:45.374Z,0.00
2023-03-12T02:52:45.367Z,0.00
2023-03-12T02:53:45.367Z,0.00
2023-03-12T02:54:45.372Z,0.00
2023-03-12T02:55:45.367Z,0.00
2023-03-12T02:56:45.364Z,0.00
2023-03-12T02:57:45.342Z,0.00
2023-03-12T02:58:45.339Z,0.00
2023-03-12T02:59:45.333Z,0.00
2023-03-12T03:00:45.325Z,0.00
2023-03-12T03:01:45.496Z,0.00
2023-03-12T03:02:45.322Z,0.00
2023-03-12T03:03:45.359Z,0.00
2023-03-12T03:04:45.300Z,0.00
2023-03-12T03:05:45.295Z,0.00
2023-03-12T03:06:45.295Z,0.00
2023-03-12T03:07:45.290Z,0.00
2023-03-12T03:08:45.275Z,0.00
2023-03-12T03:09:45.272Z,0.00
2023-03-12T03:10:45.268Z,0.00
2023-03-12T03:11:45.259Z,0.00
2023-03-12T03:12:45.253Z,0.00
2023-03-12T03:13:45.254Z,0.00
2023-03-12T03:14:45.243Z,0.00
2023-03-12T03:15:45.273Z,0.00
2023-03-12T03:16:45.238Z,0.00
2023-03-12T03:17:45.257Z,0.00
2023-03-12T03:18:45.221Z,0.00
2023-03-12T03:19:45.216Z,0.00
2023-03-12T03:20:45.212Z,0.00
2023-03-12T03:21:45.211Z,0.00
2023-03-12T03:22:45.202Z,0.00
2023-03-12T03:23:45.200Z,0.00
2023-03-12T03:24:45.186Z,0.00
2023-03-12T03:25:45.180Z,0.00
2023-03-12T03:26:45.183Z,0.00
2023-03-12T03:27:45.171Z,0.00
2023-03-12T03:28:45.168Z,0.00
2023-03-12T03:29:45.158Z,0.00
2023-03-12T03:30:45.224Z,0.00
2023-03-12T03:31:45.146Z,0.00
2023-03-12T03:32:45.226Z,0.00
2023-03-12T03:33:45.160Z,0.00
2023-03-12T03:34:45.133Z,0.00
2023-03-12T03:35:45.164Z,0.00
2023-03-12T03:36:45.125Z,0.00
2023-03-12T03:37:45.105Z,0.00
2023-03-12T03:38:45.103Z,0.00
2023-03-12T03:39:45.103Z,0.00
2023-03-12T03:40:45.094Z,0.00
2023-03-12T03:41:45.084Z,0.00
2023-03-12T03:42:45.096Z,0.00
2023-03-12T03:43:45.075Z,0.00
2023-03-12T03:44:45.071Z,0.00
2023-03-12T03:45:45.062Z,0.00
2023-03-12T03:46:45.065Z,0.00
2023-03-12T03:47:45.048Z,0.00
2023-03-12T03:48:45.049Z,0.00
2023-03-12T03:49:45.063Z,0.00
2023-03-12T03:50:45.032Z,0.00
2023-03-12T03:51:45.044Z,0.00
2023-03-12T03:52:45.026Z,0.00
2023-03-12T03:53:45.014Z,0.00
2023-03-12T03:54:45.010Z,0.00
2023-03-12T03:55:45.005Z,0.00
2023-03-12T03:56:45.001Z,0.00
2023-03-12T03:57:45.000Z,0.00
2023-03-12T03:58:44.993Z,0.00
2023-03-12T03:59:44.997Z,0.00
2023-03-12T04:00:45.026Z,0.00
2023-03-12T04:01:44.971Z,0.00
2023-03-12T04:02:44.986Z,0.00
2023-03-12T04:03:45.067Z,0.00
2023-03-12T04:04:44.951Z,0.00
2023-03-12T04:05:45.069Z,0.00
2023-03-12T04:06:44.962Z,0.00
2023-03-12T04:07:44.928Z,0.00
2023-03-12T04:08:44.931Z,0.00
2023-03-12T04:09:44.920Z,0.00
2023-03-12T04:10:44.916Z,0.00
2023-03-12T04:11:44.906Z,0.00
2023-03-12T04:12:44.904Z,0.00
2023-03-12T04:13:44.892Z,0.00
2023-03-12T04:14:44.893Z,0.00
2023-03-12T04:15:44.939Z,0.00
2023-03-12T04:16:44.878Z,0.00
2023-03-12T04:17:44.982Z,0.00
2023-03-12T04:18:44.868Z,0.00
2023-03-12T04:19:44.862Z,0.00
2023-03-12T04:20:44.859Z,0.00
2023-03-12T04:21:44.867Z,0.00
2023-03-12T04:22:44.842Z,0.00
2023-03-12T04:23:44.831Z,0.00
2023-03-12T04:24:44.839Z,0.00
2023-03-12T04:25:44.822Z,0.00
2023-03-12T04:26:44.823Z,0.00
2023-03-12T04:27:44.813Z,0.00
2023-03-12T04:28:44.811Z,0.00
2023-03-12T04:29:44.799Z,0.00
2023-03-12T04:30:44.802Z,0.00
2023-03-12T04:31:44.945Z,0.00
2023-03-12T04:32:44.827Z,0.00
2023-03-12T04:33:44.793Z,0.00
2023-03-12T04:34:44.769Z,0.00
2023-03-12T04:35:44.774Z,0.00
2023-03-12T04:36:44.761Z,0.00
2023-03-12T04:37:44.772Z,0.00
2023-03-12T04:38:44.751Z,0.00
2023-03-12T04:39:44.738Z,0.00
2023-03-12T04:40:44.736Z,0.00
2023-03-12T04:41:44.734Z,0.00
2023-03-12T04:42:44.726Z,0.00
2023-03-12T04:43:44.714Z,0.00
2023-03-12T04:44:44.718Z,0.00
2023-03-12T04:45:44.706Z,0.00
2023-03-12T04:46:44.793Z,0.00
2023-03-12T04:47:44.695Z,0.00
2023-03-12T04:48:44.689Z,0.00
2023-03-12T04:49:44.686Z,0.00
2023-03-12T04:50:44.709Z,0.00
2023-03-12T04:51:44.673Z,0.00
2023-03-12T04:52:44.670Z,0.00
2023-03-12T04:53:44.780Z,0.00
2023-03-12T04:54:46.794Z,0.00
2023-03-12T04:55:44.649Z,0.00
2023-03-12T04:56:44.650Z,0.00
2023-03-12T04:57:44.632Z,0.00
2023-03-12T04:58:44.632Z,0.00
2023-03-12T04:59:44.625Z,0.00
2023-03-12T05:00:44.623Z,0.00
2023-03-12T05:01:44.609Z,0.00
2023-03-12T05:02:44.639Z,0.00
2023-03-12T05:03:44.655Z,0.00
2023-03-12T05:04:44.598Z,0.00
2023-03-12T05:05:44.592Z,0.00
2023-03-12T05:06:44.585Z,0.00
2023-03-12T05:07:44.576Z,0.00
2023-03-12T05:08:44.570Z,0.00
2023-03-12T05:09:44.586Z,0.00
2023-03-12T05:10:44.569Z,0.00
2023-03-12T05:11:44.566Z,0.00
2023-03-12T05:12:44.556Z,0.00
2023-03-12T05:13:44.550Z,0.00
2023-03-12T05:14:44.540Z,0.00
2023-03-12T05:15:44.551Z,0.00
2023-03-12T05:16:44.583Z,0.00
2023-03-12T05:17:44.515Z,0.00
2023-03-12T05:18:44.513Z,0.00
2023-03-12T05:19:44.503Z,0.00
2023-03-12T05:20:44.498Z,0.00
2023-03-12T05:21:44.489Z,0.00
2023-03-12T05:22:44.484Z,0.00
2023-03-12T05:23:44.481Z,5.63
2023-03-12T05:24:44.478Z,5.63
2023-03-12T05:25:44.491Z,5.63
2023-03-12T05:26:44.459Z,5.63
2023-03-12T05:27:44.449Z,5.63
2023-03-12T05:28:44.450Z,5.63
2023-03-12T05:29:44.445Z,5.63
2023-03-12T05:30:44.434Z,5.63
2023-03-12T05:31:44.448Z,5.63
2023-03-12T05:32:44.462Z,5.63
2023-03-12T05:33:44.420Z,11.25
2023-03-12T05:34:44.414Z,11.25
2023-03-12T05:35:44.458Z,11.25
2023-03-12T05:36:44.398Z,11.25
2023-03-12T05:37:44.388Z,11.25
2023-03-12T05:38:44.389Z,11.25
2023-03-12T05:39:44.381Z,16.88
2023-03-12T05:40:44.382Z,16.88
2023-03-12T05:41:44.390Z,16.88
2023-03-12T05:42:44.365Z,16.88
2023-03-12T05:43:44.351Z,16.88
2023-03-12T05:44:44.357Z,16.88
2023-03-12T05:45:44.396Z,22.50
2023-03-12T05:46:44.345Z,22.50
2023-03-12T05:47:44.331Z,22.50
2023-03-12T05:48:44.326Z,22.50
2023-03-12T05:49:44.321Z,22.50
2023-03-12T05:50:44.326Z,22.50
2023-03-12T05:51:44.314Z,28.13
2023-03-12T05:52:44.355Z,28.13
2023-03-12T05:53:44.288Z,28.13
2023-03-12T05:54:44.285Z,28.13
2023-03-12T05:55:44.284Z,33.75
2023-03-12T05:56:44.275Z,33.75
2023-03-12T05:57:44.295Z,33.75
2023-03-12T05:58:44.260Z,33.75
2023-03-12T05:59:44.249Z,39.38
2023-03-12T06:00:44.276Z,39.38
2023-03-12T06:01:44.237Z,39.38
2023-03-12T06:02:44.234Z,39.38
2023-03-12T06:03:44.394Z,45.00
2023-03-12T06:04:44.235Z,45.00
2023-03-12T06:05:44.219Z,45.00
2023-03-12T06:06:44.212Z,50.63
2023-03-12T06:07:44.198Z,50.63
2023-03-12T06:08:44.218Z,50.63
2023-03-12T06:09:44.186Z,50.63
2023-03-12T06:10:44.182Z,56.25
2023-03-12T06:11:44.174Z,56.25
2023-03-12T06:12:44.184Z,56.25
2023-03-12T06:13:44.196Z,61.88
2023-03-12T06:14:44.164Z,61.88
2023-03-12T06:15:44.148Z,61.88
2023-03-12T06:16:44.280Z,67.50
2023-03-12T06:17:44.140Z,67.50
2023-03-12T06:18:44.162Z,73.13
2023-03-12T06:19:44.129Z,73.13
2023-03-12T06:20:44.122Z,73.13
2023-03-12T06:21:44.109Z,73.13
2023-03-12T06:22:44.104Z,78.75
2023-03-12T06:23:44.104Z,78.75
2023-03-12T06:24:44.098Z,78.75
2023-03-12T06:25:44.087Z,78.75
2023-03-12T06:26:44.080Z,78.75
2023-03-12T06:27:44.072Z,78.75
2023-03-12T06:28:44.071Z,78.75
2023-03-12T06:29:44.088Z,84.38
2023-03-12T06:30:44.052Z,84.38
2023-03-12T06:31:44.285Z,84.38
2023-03-12T06:32:44.108Z,84.38
2023-03-12T06:33:44.036Z,84.38
2023-03-12T06:34:44.045Z,90.00
2023-03-12T06:35:44.089Z,90.00
2023-03-12T06:36:44.023Z,90.00
2023-03-12T06:37:44.013Z,95.63
2023-03-12T06:38:44.009Z,95.63
2023-03-12T06:39:44.001Z,95.63
2023-03-12T06:40:44.005Z,90.00
2023-03-12T06:41:43.991Z,95.63
2023-03-12T06:42:43.986Z,101.25
2023-03-12T06:43:43.986Z,106.88
2023-03-12T06:44:43.975Z,106.88
2023-03-12T06:45:43.989Z,101.25
2023-03-12T06:46:43.977Z,90.00
2023-03-12T06:47:43.955Z,90.00
2023-03-12T06:48:43.954Z,106.88
2023-03-12T06:49:43.946Z,112.50
2023-03-12T06:50:43.938Z,118.13
2023-03-12T06:53:16.556Z,123.75
2023-03-12T06:54:16.575Z,123.75
2023-03-12T06:55:16.552Z,129.38
2023-03-12T06:56:16.551Z,129.38
2023-03-12T06:57:16.537Z,129.38
2023-03-12T06:58:16.534Z,129.38
2023-03-12T06:59:16.533Z,135.00
2023-03-12T07:00:16.524Z,135.00
2023-03-12T07:01:16.557Z,140.63
2023-03-12T07:02:16.586Z,140.63
2023-03-12T07:03:16.505Z,140.63
2023-03-12T07:04:16.503Z,146.25
2023-03-12T07:05:16.548Z,151.88
2023-03-12T07:06:16.496Z,163.13
2023-03-12T07:07:16.484Z,168.75
2023-03-12T07:08:16.480Z,174.38
2023-03-12T07:09:16.479Z,174.38
2023-03-12T07:10:16.467Z,174.38
2023-03-12T07:11:16.482Z,174.38
2023-03-12T07:12:16.460Z,185.63
2023-03-12T07:13:16.450Z,180.00
2023-03-12T07:14:16.456Z,180.00
2023-03-12T07:15:16.447Z,180.00
2023-03-12T07:16:16.527Z,168.75
2023-03-12T07:17:16.457Z,208.13
2023-03-12T07:18:16.427Z,230.63
2023-03-12T07:19:16.419Z,247.50
2023-03-12T07:20:16.415Z,270.00
2023-03-12T07:21:16.408Z,286.88
2023-03-12T07:22:16.408Z,281.25
2023-03-12T07:23:16.410Z,286.88
2023-03-12T07:24:16.393Z,292.50
2023-03-12T07:25:18.634Z,315.00
2023-03-12T07:26:16.389Z,326.25
2023-03-12T07:27:16.385Z,326.25
2023-03-12T07:28:16.377Z,348.75
2023-03-12T07:29:16.369Z,337.50
2023-03-12T07:30:16.379Z,348.75
2023-03-12T07:31:16.387Z,365.63
2023-03-12T07:32:16.430Z,365.63
2023-03-12T07:33:16.552Z,399.38
2023-03-12T07:34:16.500Z,399.38
2023-03-12T07:35:16.343Z,399.38
2023-03-12T07:36:16.563Z,376.88
2023-03-12T07:37:16.330Z,371.25
2023-03-12T07:38:16.347Z,393.75
2023-03-12T07:39:16.322Z,360.00
2023-03-12T07:40:16.321Z,360.00
2023-03-12T07:41:16.356Z,382.50
2023-03-12T07:42:16.348Z,405.00
2023-03-12T07:43:16.296Z,405.00
2023-03-12T07:44:16.306Z,405.00
2023-03-12T07:45:16.330Z,506.25
2023-03-12T07:46:16.311Z,540.00
2023-03-12T07:47:23.643Z,556.88
2023-03-12T07:48:16.329Z,523.13
2023-03-12T07:49:16.304Z,725.63
2023-03-12T07:50:16.309Z,675.00
2023-03-12T07:51:16.271Z,939.38
2023-03-12T07:52:16.318Z,1096.88
2023-03-12T07:53:16.261Z,1057.50
2023-03-12T07:54:16.261Z,950.63
2023-03-12T07:55:16.472Z,1012.50
2023-03-12T07:56:16.417Z,1265.63
2023-03-12T07:57:16.403Z,1355.63
2023-03-12T07:58:16.413Z,1355.63
2023-03-12T07:59:16.363Z,1355.63
2023-03-12T08:00:16.287Z,1310.63
2023-03-12T08:01:16.287Z,1456.88
2023-03-12T08:02:16.312Z,1552.50
2023-03-12T08:03:16.329Z,1653.75
2023-03-12T08:04:16.279Z,1681.88
2023-03-12T08:05:16.241Z,1755.00
2023-03-12T08:06:16.294Z,1788.75
2023-03-12T08:07:16.345Z,1828.13
2023-03-12T08:08:16.240Z,1906.88
2023-03-12T08:09:16.203Z,1935.00
2023-03-12T08:10:16.246Z,1788.75
2023-03-12T08:11:16.198Z,1608.75
2023-03-12T08:12:16.256Z,1693.13
2023-03-12T08:13:16.252Z,1721.25
2023-03-12T08:14:16.206Z,1822.50
2023-03-12T08:15:16.199Z,1912.50
2023-03-12T08:16:16.217Z,1946.25
2023-03-12T08:17:16.206Z,2002.50
2023-03-12T08:18:16.227Z,1974.38
2023-03-12T08:19:16.191Z,1783.13
2023-03-12T08:20:16.188Z,1265.63
2023-03-12T08:21:16.589Z,1226.25
2023-03-12T08:22:16.187Z,1293.75
2023-03-12T08:23:16.183Z,1530.00
2023-03-12T08:24:16.189Z,1653.75
2023-03-12T08:25:16.179Z,1681.88
2023-03-12T08:26:16.186Z,1788.75
2023-03-12T08:27:16.187Z,1861.88
2023-03-12T08:28:16.185Z,1794.38
2023-03-12T08:29:16.192Z,1816.88
2023-03-12T08:30:16.190Z,1867.50
2023-03-12T08:31:16.194Z,1957.50
2023-03-12T08:32:16.340Z,1963.13
2023-03-12T08:33:16.200Z,2098.13
2023-03-12T08:34:16.178Z,2216.25
2023-03-12T08:35:16.176Z,2345.63
2023-03-12T08:36:16.180Z,2430.00
2023-03-12T08:37:16.214Z,2497.50
2023-03-12T08:38:16.183Z,2475.00
2023-03-12T08:39:16.177Z,2148.75
2023-03-12T08:40:16.178Z,2188.13
2023-03-12T08:41:16.197Z,2463.75
2023-03-12T08:42:16.185Z,2559.38
2023-03-12T08:43:16.181Z,2525.63
2023-03-12T08:44:16.183Z,2536.88
2023-03-12T08:45:16.179Z,2587.50
2023-03-12T08:46:16.247Z,1726.88
2023-03-12T08:47:16.191Z,2688.75
2023-03-12T08:48:16.194Z,2761.88
2023-03-12T08:49:16.189Z,2683.13
2023-03-12T08:50:16.187Z,2604.38
2023-03-12T08:51:16.957Z,2446.88
2023-03-12T08:52:16.185Z,2216.25
2023-03-12T08:53:16.223Z,2188.13
2023-03-12T08:54:16.200Z,1957.50
2023-03-12T08:55:16.229Z,1867.50
2023-03-12T08:56:16.198Z,1575.00
2023-03-12T08:57:16.201Z,1698.75
2023-03-12T08:58:16.202Z,1794.38
2023-03-12T08:59:16.201Z,1687.50
2023-03-12T09:00:16.238Z,1614.38
2023-03-12T09:01:16.203Z,1575.00
2023-03-12T09:02:16.212Z,1327.50
2023-03-12T09:03:16.220Z,1462.50
2023-03-12T09:04:16.293Z,1563.75
2023-03-12T09:05:16.206Z,1400.63
2023-03-12T09:06:16.207Z,1248.75
2023-03-12T09:07:16.209Z,1468.13
2023-03-12T09:08:16.210Z,1164.38
2023-03-12T09:09:16.227Z,1456.88
2023-03-12T09:10:16.229Z,1524.38
2023-03-12T09:11:16.212Z,1372.50
2023-03-12T09:12:16.212Z,1068.75
2023-03-12T09:13:16.212Z,866.25
2023-03-12T09:15:16.218Z,765.00
2023-03-12T09:15:16.434Z,810.00
2023-03-12T09:16:16.226Z,742.50
2023-03-12T09:17:16.218Z,708.75
2023-03-12T09:18:16.267Z,753.75
2023-03-12T09:19:16.214Z,748.13
2023-03-12T09:20:16.221Z,753.75
2023-03-12T09:21:16.215Z,736.88
2023-03-12T09:22:16.218Z,731.25
2023-03-12T09:23:16.219Z,703.13
2023-03-12T09:24:16.225Z,703.13
2023-03-12T09:25:16.240Z,669.38
2023-03-12T09:26:16.234Z,742.50
2023-03-12T09:27:16.228Z,781.88
2023-03-12T09:28:16.737Z,798.75
2023-03-12T09:29:16.217Z,798.75
2023-03-12T09:30:16.227Z,838.13
2023-03-12T09:31:16.253Z,810.00
2023-03-12T09:32:16.329Z,776.25
2023-03-12T09:33:16.216Z,765.00
2023-03-12T09:34:16.225Z,742.50
2023-03-12T09:35:16.237Z,759.38
2023-03-12T09:36:16.219Z,787.50
2023-03-12T09:37:16.217Z,894.38
2023-03-12T09:38:16.224Z,843.75
2023-03-12T09:39:16.216Z,860.63
2023-03-12T09:40:16.221Z,860.63
2023-03-12T09:41:16.242Z,871.88
2023-03-12T09:42:16.221Z,866.25
2023-03-12T09:43:16.224Z,804.38
2023-03-12T09:44:16.221Z,753.75
2023-03-12T09:45:16.223Z,736.88
2023-03-12T09:46:16.247Z,759.38
2023-03-12T09:47:16.228Z,787.50
2023-03-12T09:48:16.224Z,821.25
2023-03-12T09:49:16.227Z,849.38
2023-03-12T09:50:16.229Z,860.63
2023-03-12T09:51:16.217Z,888.75
2023-03-12T09:52:16.223Z,883.13
2023-03-12T09:53:16.217Z,905.63
2023-03-12T09:54:16.250Z,871.88
2023-03-12T09:55:16.230Z,832.50
2023-03-12T09:56:16.223Z,804.38
2023-03-12T09:57:16.239Z,787.50
2023-03-12T09:58:16.233Z,787.50
2023-03-12T09:59:16.225Z,798.75
2023-03-12T10:00:16.222Z,793.13
2023-03-12T10:01:16.225Z,810.00
2023-03-12T10:02:16.220Z,843.75
2023-03-12T10:03:16.232Z,843.75
2023-03-12T10:04:16.259Z,832.50
2023-03-12T10:05:16.288Z,804.38
2023-03-12T10:06:16.249Z,776.25
2023-03-12T10:07:16.221Z,776.25
2023-03-12T10:08:23.993Z,787.50
2023-03-12T10:09:16.229Z,821.25
2023-03-12T10:10:16.221Z,843.75
2023-03-12T10:11:16.216Z,894.38
2023-03-12T10:12:16.223Z,888.75
2023-03-12T10:13:16.252Z,883.13
2023-03-12T10:14:23.963Z,900.00
2023-03-12T10:15:16.258Z,900.00
2023-03-12T10:16:16.392Z,849.38
2023-03-12T10:17:16.222Z,815.63
2023-03-12T10:18:16.441Z,810.00
2023-03-12T10:19:16.225Z,843.75
2023-03-12T10:20:16.226Z,905.63
2023-03-12T10:21:16.222Z,933.75
2023-03-12T10:22:16.221Z,916.88
2023-03-12T10:23:16.213Z,888.75
2023-03-12T10:24:16.216Z,860.63
2023-03-12T10:25:16.211Z,928.13
2023-03-12T10:26:16.229Z,967.50
2023-03-12T10:27:16.213Z,911.25
2023-03-12T10:28:16.215Z,866.25
2023-03-12T10:29:16.240Z,787.50
2023-03-12T10:30:16.213Z,748.13
2023-03-12T10:31:16.270Z,776.25
2023-03-12T10:32:16.364Z,838.13
2023-03-12T10:33:16.211Z,804.38
2023-03-12T10:34:16.219Z,770.63
2023-03-12T10:35:16.203Z,832.50
2023-03-12T10:36:16.219Z,894.38
2023-03-12T10:37:16.210Z,877.50
2023-03-12T10:38:16.210Z,860.63
2023-03-12T10:39:16.212Z,810.00
2023-03-12T10:40:16.216Z,753.75
2023-03-12T10:41:16.208Z,736.88
2023-03-12T10:42:16.213Z,736.88
2023-03-12T10:43:16.199Z,725.63
2023-03-12T10:44:16.213Z,742.50
2023-03-12T10:45:16.242Z,776.25
2023-03-12T10:46:16.250Z,798.75
2023-03-12T10:47:16.200Z,748.13
2023-03-12T10:48:16.209Z,793.13
2023-03-12T10:49:16.199Z,765.00
2023-03-12T10:50:16.210Z,765.00
2023-03-12T10:51:16.201Z,742.50
2023-03-12T10:52:16.208Z,680.63
2023-03-12T10:53:16.250Z,624.38
2023-03-12T10:54:16.207Z,708.75
2023-03-12T10:55:16.213Z,742.50
2023-03-12T10:56:16.211Z,731.25
2023-03-12T10:57:16.203Z,714.38
2023-03-12T10:58:16.198Z,725.63
2023-03-12T10:59:17.965Z,753.75
2023-03-12T11:00:16.196Z,787.50
2023-03-12T11:01:16.290Z,787.50
2023-03-12T11:02:16.257Z,793.13
2023-03-12T11:03:16.199Z,742.50
2023-03-12T11:04:16.195Z,691.88
2023-03-12T11:05:16.187Z,708.75
2023-03-12T11:06:16.250Z,624.38
2023-03-12T11:07:16.194Z,601.88
2023-03-12T11:08:16.193Z,731.25
2023-03-12T11:09:17.443Z,781.88
2023-03-12T11:10:16.187Z,776.25
2023-03-12T11:11:16.188Z,793.13
2023-03-12T11:12:16.182Z,832.50
2023-03-12T11:13:16.190Z,860.63
2023-03-12T11:14:16.388Z,877.50
2023-03-12T11:15:16.184Z,900.00
2023-03-12T11:16:16.266Z,866.25
2023-03-12T11:17:16.198Z,894.38
2023-03-12T11:18:16.181Z,900.00
2023-03-12T11:19:16.188Z,894.38
2023-03-12T11:20:16.190Z,871.88
2023-03-12T11:21:16.183Z,787.50
2023-03-12T11:22:16.190Z,652.50
2023-03-12T11:23:16.183Z,641.25
2023-03-12T11:24:16.209Z,720.00
2023-03-12T11:25:16.180Z,742.50
2023-03-12T11:26:16.177Z,742.50
2023-03-12T11:27:16.179Z,787.50
2023-03-12T11:28:16.227Z,798.75
2023-03-12T11:29:16.210Z,832.50
2023-03-12T11:30:16.276Z,832.50
2023-03-12T11:31:16.327Z,798.75
2023-03-12T11:32:16.253Z,753.75
2023-03-12T11:33:16.242Z,736.88
2023-03-12T11:34:16.174Z,725.63
2023-03-12T11:35:16.176Z,708.75
2023-03-12T11:36:16.172Z,697.50
2023-03-12T11:37:16.188Z,736.88
2023-03-12T11:38:16.187Z,765.00
2023-03-12T11:39:16.174Z,770.63
2023-03-12T11:40:16.167Z,753.75
2023-03-12T11:41:16.168Z,697.50
2023-03-12T11:42:16.176Z,691.88
2023-03-12T11:43:16.178Z,708.75
2023-03-12T11:44:16.174Z,703.13
2023-03-12T11:45:16.187Z,725.63
2023-03-12T11:46:16.173Z,703.13
2023-03-12T11:47:16.237Z,736.88
2023-03-12T11:48:16.189Z,798.75
2023-03-12T11:49:16.191Z,832.50
2023-03-12T11:50:16.160Z,810.00
2023-03-12T11:51:16.162Z,731.25
2023-03-12T11:52:16.159Z,669.38
2023-03-12T11:53:16.160Z,652.50
2023-03-12T11:54:16.159Z,669.38
2023-03-12T11:55:16.720Z,708.75
2023-03-12T11:56:16.155Z,731.25
2023-03-12T11:57:16.162Z,731.25
2023-03-12T11:58:16.155Z,703.13
2023-03-12T11:59:16.170Z,652.50
2023-03-12T12:00:16.160Z,641.25
2023-03-12T12:01:16.165Z,641.25
2023-03-12T12:02:16.206Z,607.50
2023-03-12T12:03:16.300Z,562.50
2023-03-12T12:04:16.153Z,528.75
2023-03-12T12:05:16.180Z,517.50
2023-03-12T12:06:16.153Z,528.75
2023-03-12T12:07:16.165Z,540.00
2023-03-12T12:08:16.153Z,528.75
2023-03-12T12:09:16.152Z,511.88
2023-03-12T12:10:16.146Z,478.13
2023-03-12T12:11:16.156Z,517.50
2023-03-12T12:12:16.146Z,596.25
2023-03-12T12:13:16.146Z,585.00
2023-03-12T12:14:16.162Z,523.13
2023-03-12T12:15:16.147Z,511.88
2023-03-12T12:16:16.213Z,528.75
2023-03-12T12:17:16.171Z,517.50
2023-03-12T12:18:16.140Z,489.38
2023-03-12T12:19:16.139Z,466.88
2023-03-12T12:20:16.167Z,461.25
2023-03-12T12:21:16.167Z,472.50
2023-03-12T12:22:16.138Z,506.25
2023-03-12T12:23:16.144Z,517.50
2023-03-12T12:24:18.208Z,556.88
2023-03-12T12:25:16.136Z,596.25
2023-03-12T12:26:16.144Z,607.50
2023-03-12T12:27:16.133Z,624.38
2023-03-12T12:28:16.133Z,630.00
2023-03-12T12:29:16.132Z,630.00
2023-03-12T12:30:16.127Z,641.25
2023-03-12T12:31:16.129Z,534.38
2023-03-12T12:32:16.141Z,483.75
2023-03-12T12:33:16.128Z,489.38
2023-03-12T12:34:16.135Z,528.75
2023-03-12T12:35:16.150Z,590.63
2023-03-12T12:36:16.154Z,601.88
2023-03-12T12:37:16.154Z,613.13
2023-03-12T12:38:16.124Z,596.25
2023-03-12T12:39:16.116Z,641.25
2023-03-12T12:40:16.125Z,658.13
2023-03-12T12:41:16.118Z,646.88
2023-03-12T12:42:16.114Z,556.88
2023-03-12T12:43:16.131Z,495.00
2023-03-12T12:44:16.117Z,495.00
2023-03-12T12:45:16.112Z,545.63
2023-03-12T12:46:16.207Z,551.25
2023-03-12T12:47:16.110Z,517.50
2023-03-12T12:48:16.104Z,523.13
2023-03-12T12:49:16.141Z,534.38
2023-03-12T12:50:16.110Z,506.25
2023-03-12T12:51:16.108Z,478.13